sensor_id;sensor_type;location;lat;lon;timestamp;temperature;humidity
16625;DHT22;8426;48.496;9.098;2023-05-10T00:02:09;13.00;99.90
16625;DHT22;8426;48.496;9.098;2023-05-10T00:07:19;12.90;99.90
16625;DHT22;8426;48.496;9.098;2023-05-10T00:12:25;12.90;99.90
16625;DHT22;8426;48.496;9.098;2023-05-10T00:17:28;12.80;99.90
16625;DHT22;8426;48.496;9.098;2023-05-10T00:22:35;12.80;99.90
16625;DHT22;8426;48.496;9.098;2023-05-10T00:27:39;12.80;99.90
16625;DHT22;8426;48.496;9.098;2023-05-10T00:32:43;12.80;99.90
16625;DHT22;8426;48.496;9.098;2023-05-10T00:37:49;12.80;99.90
16625;DHT22;8426;48.496;9.098;2023-05-10T00:42:54;12.80;99.90
16625;DHT22;8426;48.496;9.098;2023-05-10T00:48:02;12.70;99.90
16625;DHT22;8426;48.496;9.098;2023-05-10T00:53:09;12.70;99.90
16625;DHT22;8426;48.496;9.098;2023-05-10T00:58:13;12.60;99.90
16625;DHT22;8426;48.496;9.098;2023-05-10T01:03:17;12.60;99.90
16625;DHT22;8426;48.496;9.098;2023-05-10T01:08:23;12.50;99.90
16625;DHT22;8426;48.496;9.098;2023-05-10T01:13:31;12.50;99.90
16625;DHT22;8426;48.496;9.098;2023-05-10T01:18:38;12.50;99.90
16625;DHT22;8426;48.496;9.098;2023-05-10T01:24:09;12.50;99.90
16625;DHT22;8426;48.496;9.098;2023-05-10T01:35:16;12.40;99.90
16625;DHT22;8426;48.496;9.098;2023-05-10T01:40:28;12.30;99.90
16625;DHT22;8426;48.496;9.098;2023-05-10T01:45:38;12.30;99.90
16625;DHT22;8426;48.496;9.098;2023-05-10T01:50:44;12.20;99.90
16625;DHT22;8426;48.496;9.098;2023-05-10T01:55:50;12.20;99.90
16625;DHT22;8426;48.496;9.098;2023-05-10T02:00:55;12.20;99.90
16625;DHT22;8426;48.496;9.098;2023-05-10T02:06:00;12.20;99.90
16625;DHT22;8426;48.496;9.098;2023-05-10T02:11:04;12.20;99.90
16625;DHT22;8426;48.496;9.098;2023-05-10T02:16:08;12.10;99.90
16625;DHT22;8426;48.496;9.098;2023-05-10T02:21:21;12.10;99.90
16625;DHT22;8426;48.496;9.098;2023-05-10T02:26:26;12.00;99.90
16625;DHT22;8426;48.496;9.098;2023-05-10T02:31:33;11.90;99.90
16625;DHT22;8426;48.496;9.098;2023-05-10T02:36:38;11.90;99.90
16625;DHT22;8426;48.496;9.098;2023-05-10T02:41:43;11.80;99.90
16625;DHT22;8426;48.496;9.098;2023-05-10T02:46:49;11.80;99.90
16625;DHT22;8426;48.496;9.098;2023-05-10T02:52:00;11.80;99.90
16625;DHT22;8426;48.496;9.098;2023-05-10T02:57:16;11.70;99.90
16625;DHT22;8426;48.496;9.098;2023-05-10T03:02:21;11.70;99.90
16625;DHT22;8426;48.496;9.098;2023-05-10T03:07:26;11.70;99.90
16625;DHT22;8426;48.496;9.098;2023-05-10T03:12:39;11.60;99.90
16625;DHT22;8426;48.496;9.098;2023-05-10T03:17:50;11.60;99.90
16625;DHT22;8426;48.496;9.098;2023-05-10T03:23:02;11.60;99.90
16625;DHT22;8426;48.496;9.098;2023-05-10T03:28:07;11.60;99.90
16625;DHT22;8426;48.496;9.098;2023-05-10T03:33:12;11.60;99.90
16625;DHT22;8426;48.496;9.098;2023-05-10T03:38:21;11.60;99.90
16625;DHT22;8426;48.496;9.098;2023-05-10T03:43:29;11.70;99.90
16625;DHT22;8426;48.496;9.098;2023-05-10T03:48:33;11.60;99.90
16625;DHT22;8426;48.496;9.098;2023-05-10T03:53:39;11.60;99.90
16625;DHT22;8426;48.496;9.098;2023-05-10T03:58:42;11.50;99.90
16625;DHT22;8426;48.496;9.098;2023-05-10T04:03:48;11.50;99.90
16625;DHT22;8426;48.496;9.098;2023-05-10T04:08:56;11.50;99.90
16625;DHT22;8426;48.496;9.098;2023-05-10T04:14:05;11.50;99.90
16625;DHT22;8426;48.496;9.098;2023-05-10T04:19:10;11.60;99.90
16625;DHT22;8426;48.496;9.098;2023-05-10T04:24:16;11.70;99.90
16625;DHT22;8426;48.496;9.098;2023-05-10T04:29:20;11.70;99.90
16625;DHT22;8426;48.496;9.098;2023-05-10T04:34:31;11.80;99.90
16625;DHT22;8426;48.496;9.098;2023-05-10T04:39:39;11.80;99.90
16625;DHT22;8426;48.496;9.098;2023-05-10T04:44:44;11.80;99.90
16625;DHT22;8426;48.496;9.098;2023-05-10T04:49:52;11.80;99.90
16625;DHT22;8426;48.496;9.098;2023-05-10T04:54:58;11.80;99.90
16625;DHT22;8426;48.496;9.098;2023-05-10T05:00:02;11.80;99.90
16625;DHT22;8426;48.496;9.098;2023-05-10T05:05:10;11.90;99.90
16625;DHT22;8426;48.496;9.098;2023-05-10T05:10:15;11.90;99.90
16625;DHT22;8426;48.496;9.098;2023-05-10T05:15:23;12.10;99.90
16625;DHT22;8426;48.496;9.098;2023-05-10T05:20:27;12.10;99.90
16625;DHT22;8426;48.496;9.098;2023-05-10T05:25:32;12.20;99.90
16625;DHT22;8426;48.496;9.098;2023-05-10T05:30:36;12.30;99.90
16625;DHT22;8426;48.496;9.098;2023-05-10T05:35:46;12.40;99.90
16625;DHT22;8426;48.496;9.098;2023-05-10T05:41:20;12.30;99.90
16625;DHT22;8426;48.496;9.098;2023-05-10T05:46:24;12.20;99.90
16625;DHT22;8426;48.496;9.098;2023-05-10T05:51:31;12.10;99.90
16625;DHT22;8426;48.496;9.098;2023-05-10T05:56:38;12.20;99.90
16625;DHT22;8426;48.496;9.098;2023-05-10T06:01:43;12.30;99.90
16625;DHT22;8426;48.496;9.098;2023-05-10T06:06:47;12.30;99.90
16625;DHT22;8426;48.496;9.098;2023-05-10T06:11:57;12.30;99.90
16625;DHT22;8426;48.496;9.098;2023-05-10T06:17:06;12.50;99.90
16625;DHT22;8426;48.496;9.098;2023-05-10T06:22:12;12.70;99.90
16625;DHT22;8426;48.496;9.098;2023-05-10T06:27:17;12.70;99.90
16625;DHT22;8426;48.496;9.098;2023-05-10T06:32:20;12.80;99.90
16625;DHT22;8426;48.496;9.098;2023-05-10T06:37:25;13.00;99.90
16625;DHT22;8426;48.496;9.098;2023-05-10T06:42:29;13.20;99.90
16625;DHT22;8426;48.496;9.098;2023-05-10T06:47:40;13.40;99.90
16625;DHT22;8426;48.496;9.098;2023-05-10T06:52:49;13.70;99.90
16625;DHT22;8426;48.496;9.098;2023-05-10T06:57:57;13.70;99.90
16625;DHT22;8426;48.496;9.098;2023-05-10T07:03:00;13.80;99.90
16625;DHT22;8426;48.496;9.098;2023-05-10T07:08:05;13.90;99.90
16625;DHT22;8426;48.496;9.098;2023-05-10T07:13:12;13.80;99.90
16625;DHT22;8426;48.496;9.098;2023-05-10T07:18:16;13.60;99.90
16625;DHT22;8426;48.496;9.098;2023-05-10T07:23:19;13.40;99.90
16625;DHT22;8426;48.496;9.098;2023-05-10T07:28:33;13.50;99.90
16625;DHT22;8426;48.496;9.098;2023-05-10T07:33:39;13.70;99.90
16625;DHT22;8426;48.496;9.098;2023-05-10T07:38:43;13.70;99.90
16625;DHT22;8426;48.496;9.098;2023-05-10T07:43:48;13.80;99.90
16625;DHT22;8426;48.496;9.098;2023-05-10T07:48:51;13.80;99.90
16625;DHT22;8426;48.496;9.098;2023-05-10T07:54:00;14.00;99.90
16625;DHT22;8426;48.496;9.098;2023-05-10T07:59:17;13.90;99.90
16625;DHT22;8426;48.496;9.098;2023-05-10T08:04:21;14.10;99.90
16625;DHT22;8426;48.496;9.098;2023-05-10T08:09:32;14.30;99.90
16625;DHT22;8426;48.496;9.098;2023-05-10T08:14:37;14.50;99.90
16625;DHT22;8426;48.496;9.098;2023-05-10T08:19:42;15.00;99.90
16625;DHT22;8426;48.496;9.098;2023-05-10T08:24:46;15.40;99.90
16625;DHT22;8426;48.496;9.098;2023-05-10T08:30:00;15.90;99.90
16625;DHT22;8426;48.496;9.098;2023-05-10T08:35:09;16.60;99.90
16625;DHT22;8426;48.496;9.098;2023-05-10T08:40:19;16.50;99.90
16625;DHT22;8426;48.496;9.098;2023-05-10T08:45:32;17.00;99.90
16625;DHT22;8426;48.496;9.098;2023-05-10T08:50:38;17.40;99.90
16625;DHT22;8426;48.496;9.098;2023-05-10T08:55:45;17.40;99.90
16625;DHT22;8426;48.496;9.098;2023-05-10T09:00:55;16.70;99.90
16625;DHT22;8426;48.496;9.098;2023-05-10T09:06:01;16.60;99.90
16625;DHT22;8426;48.496;9.098;2023-05-10T09:11:09;16.60;99.90
16625;DHT22;8426;48.496;9.098;2023-05-10T09:16:18;16.60;99.90
16625;DHT22;8426;48.496;9.098;2023-05-10T09:21:46;16.90;99.90
16625;DHT22;8426;48.496;9.098;2023-05-10T09:26:51;16.80;99.90
16625;DHT22;8426;48.496;9.098;2023-05-10T09:32:01;16.90;99.90
16625;DHT22;8426;48.496;9.098;2023-05-10T09:37:06;17.10;99.90
16625;DHT22;8426;48.496;9.098;2023-05-10T09:42:10;17.80;99.90
16625;DHT22;8426;48.496;9.098;2023-05-10T09:47:19;18.60;99.90
16625;DHT22;8426;48.496;9.098;2023-05-10T09:52:28;18.90;99.90
16625;DHT22;8426;48.496;9.098;2023-05-10T09:57:34;18.40;99.90
16625;DHT22;8426;48.496;9.098;2023-05-10T10:02:55;17.20;99.90
16625;DHT22;8426;48.496;9.098;2023-05-10T10:08:05;15.60;99.90
16625;DHT22;8426;48.496;9.098;2023-05-10T10:13:12;15.00;99.90
16625;DHT22;8426;48.496;9.098;2023-05-10T10:18:25;15.00;99.90
16625;DHT22;8426;48.496;9.098;2023-05-10T10:23:36;14.90;99.90
16625;DHT22;8426;48.496;9.098;2023-05-10T10:28:50;15.30;99.90
16625;DHT22;8426;48.496;9.098;2023-05-10T10:34:05;15.30;99.90
16625;DHT22;8426;48.496;9.098;2023-05-10T10:39:10;15.50;99.90
16625;DHT22;8426;48.496;9.098;2023-05-10T10:44:34;16.20;99.90
16625;DHT22;8426;48.496;9.098;2023-05-10T10:50:04;17.00;99.90
16625;DHT22;8426;48.496;9.098;2023-05-10T10:55:13;17.40;99.90
16625;DHT22;8426;48.496;9.098;2023-05-10T11:00:28;18.30;99.90
16625;DHT22;8426;48.496;9.098;2023-05-10T11:05:41;19.00;99.90
16625;DHT22;8426;48.496;9.098;2023-05-10T11:11:05;19.40;99.90
16625;DHT22;8426;48.496;9.098;2023-05-10T11:16:13;18.60;99.90
16625;DHT22;8426;48.496;9.098;2023-05-10T11:21:22;16.70;99.90
16625;DHT22;8426;48.496;9.098;2023-05-10T11:26:32;15.30;99.90
16625;DHT22;8426;48.496;9.098;2023-05-10T11:31:44;14.90;99.90
16625;DHT22;8426;48.496;9.098;2023-05-10T11:36:52;14.90;99.90
16625;DHT22;8426;48.496;9.098;2023-05-10T11:42:12;15.10;99.90
16625;DHT22;8426;48.496;9.098;2023-05-10T11:47:42;14.70;99.90
16625;DHT22;8426;48.496;9.098;2023-05-10T11:52:50;14.60;99.90
16625;DHT22;8426;48.496;9.098;2023-05-10T11:57:54;14.60;99.90
16625;DHT22;8426;48.496;9.098;2023-05-10T12:03:01;14.80;99.90
16625;DHT22;8426;48.496;9.098;2023-05-10T12:08:15;15.30;99.90
16625;DHT22;8426;48.496;9.098;2023-05-10T12:13:49;15.90;99.90
16625;DHT22;8426;48.496;9.098;2023-05-10T12:19:02;16.20;99.90
16625;DHT22;8426;48.496;9.098;2023-05-10T12:24:09;16.50;99.90
16625;DHT22;8426;48.496;9.098;2023-05-10T12:29:16;16.50;99.90
16625;DHT22;8426;48.496;9.098;2023-05-10T12:34:25;16.60;99.90
16625;DHT22;8426;48.496;9.098;2023-05-10T12:39:45;16.50;99.90
16625;DHT22;8426;48.496;9.098;2023-05-10T12:44:55;16.60;99.90
16625;DHT22;8426;48.496;9.098;2023-05-10T12:50:01;16.40;99.90
16625;DHT22;8426;48.496;9.098;2023-05-10T12:55:06;16.30;99.90
16625;DHT22;8426;48.496;9.098;2023-05-10T13:00:12;16.60;99.90
16625;DHT22;8426;48.496;9.098;2023-05-10T13:05:19;16.70;99.90
16625;DHT22;8426;48.496;9.098;2023-05-10T13:10:55;17.10;99.90
16625;DHT22;8426;48.496;9.098;2023-05-10T13:16:00;17.30;99.90
16625;DHT22;8426;48.496;9.098;2023-05-10T13:21:12;17.60;99.90
16625;DHT22;8426;48.496;9.098;2023-05-10T13:26:17;17.50;99.90
16625;DHT22;8426;48.496;9.098;2023-05-10T13:31:23;17.50;99.90
16625;DHT22;8426;48.496;9.098;2023-05-10T13:36:30;17.60;99.90
16625;DHT22;8426;48.496;9.098;2023-05-10T13:41:51;17.60;99.90
16625;DHT22;8426;48.496;9.098;2023-05-10T13:47:05;17.60;99.90
16625;DHT22;8426;48.496;9.098;2023-05-10T13:52:25;17.60;99.90
16625;DHT22;8426;48.496;9.098;2023-05-10T13:57:36;17.50;99.90
16625;DHT22;8426;48.496;9.098;2023-05-10T14:02:46;17.40;99.90
16625;DHT22;8426;48.496;9.098;2023-05-10T14:08:01;17.60;99.90
16625;DHT22;8426;48.496;9.098;2023-05-10T14:13:28;17.60;99.90
16625;DHT22;8426;48.496;9.098;2023-05-10T14:19:07;17.60;99.90
16625;DHT22;8426;48.496;9.098;2023-05-10T14:24:41;17.80;99.90
16625;DHT22;8426;48.496;9.098;2023-05-10T14:29:51;17.70;99.90
16625;DHT22;8426;48.496;9.098;2023-05-10T14:35:45;17.80;99.90
16625;DHT22;8426;48.496;9.098;2023-05-10T14:40:56;17.90;99.90
16625;DHT22;8426;48.496;9.098;2023-05-10T14:46:07;17.50;99.90
16625;DHT22;8426;48.496;9.098;2023-05-10T14:51:20;17.40;99.90
16625;DHT22;8426;48.496;9.098;2023-05-10T14:56:26;17.20;99.90
16625;DHT22;8426;48.496;9.098;2023-05-10T15:01:58;17.30;99.90
16625;DHT22;8426;48.496;9.098;2023-05-10T15:14:03;17.50;99.90
16625;DHT22;8426;48.496;9.098;2023-05-10T15:25:52;17.30;99.90
16625;DHT22;8426;48.496;9.098;2023-05-10T15:31:10;17.10;99.90
16625;DHT22;8426;48.496;9.098;2023-05-10T15:43:30;16.60;99.90
16625;DHT22;8426;48.496;9.098;2023-05-10T15:49:18;16.30;99.90
16625;DHT22;8426;48.496;9.098;2023-05-10T15:54:36;16.00;99.90
16625;DHT22;8426;48.496;9.098;2023-05-10T15:59:41;15.90;99.90
16625;DHT22;8426;48.496;9.098;2023-05-10T16:04:45;15.90;99.90
16625;DHT22;8426;48.496;9.098;2023-05-10T16:09:52;15.80;99.90
16625;DHT22;8426;48.496;9.098;2023-05-10T16:14:57;15.70;99.90
16625;DHT22;8426;48.496;9.098;2023-05-10T16:20:02;15.40;99.90
16625;DHT22;8426;48.496;9.098;2023-05-10T16:25:29;15.20;99.90
16625;DHT22;8426;48.496;9.098;2023-05-10T16:30:39;15.00;99.90
16625;DHT22;8426;48.496;9.098;2023-05-10T16:35:52;14.80;99.90
16625;DHT22;8426;48.496;9.098;2023-05-10T16:40:56;14.70;99.90
16625;DHT22;8426;48.496;9.098;2023-05-10T16:46:11;14.70;99.90
16625;DHT22;8426;48.496;9.098;2023-05-10T16:51:20;14.60;99.90
16625;DHT22;8426;48.496;9.098;2023-05-10T16:56:31;14.60;99.90
16625;DHT22;8426;48.496;9.098;2023-05-10T17:01:38;14.70;99.90
16625;DHT22;8426;48.496;9.098;2023-05-10T17:06:42;14.70;99.90
16625;DHT22;8426;48.496;9.098;2023-05-10T17:11:50;14.70;99.90
16625;DHT22;8426;48.496;9.098;2023-05-10T17:16:55;14.70;99.90
16625;DHT22;8426;48.496;9.098;2023-05-10T17:22:00;14.50;99.90
16625;DHT22;8426;48.496;9.098;2023-05-10T17:27:03;14.20;99.90
16625;DHT22;8426;48.496;9.098;2023-05-10T17:32:09;14.00;99.90
16625;DHT22;8426;48.496;9.098;2023-05-10T17:37:12;13.80;99.90
16625;DHT22;8426;48.496;9.098;2023-05-10T17:42:17;13.70;99.90
16625;DHT22;8426;48.496;9.098;2023-05-10T17:47:27;13.50;99.90
16625;DHT22;8426;48.496;9.098;2023-05-10T17:52:36;13.50;99.90
16625;DHT22;8426;48.496;9.098;2023-05-10T17:57:39;13.30;99.90
16625;DHT22;8426;48.496;9.098;2023-05-10T18:02:46;13.30;99.90
16625;DHT22;8426;48.496;9.098;2023-05-10T18:07:53;13.20;99.90
16625;DHT22;8426;48.496;9.098;2023-05-10T18:13:00;13.10;99.90
16625;DHT22;8426;48.496;9.098;2023-05-10T18:18:11;13.00;99.90
16625;DHT22;8426;48.496;9.098;2023-05-10T18:23:17;13.00;99.90
16625;DHT22;8426;48.496;9.098;2023-05-10T18:28:23;12.90;99.90
16625;DHT22;8426;48.496;9.098;2023-05-10T18:33:31;12.80;99.90
16625;DHT22;8426;48.496;9.098;2023-05-10T18:38:34;12.70;99.90
16625;DHT22;8426;48.496;9.098;2023-05-10T18:43:39;12.60;99.90
16625;DHT22;8426;48.496;9.098;2023-05-10T18:48:46;12.50;99.90
16625;DHT22;8426;48.496;9.098;2023-05-10T18:53:54;12.30;99.90
16625;DHT22;8426;48.496;9.098;2023-05-10T18:59:00;12.20;99.90
16625;DHT22;8426;48.496;9.098;2023-05-10T19:04:07;12.10;99.90
16625;DHT22;8426;48.496;9.098;2023-05-10T19:09:14;12.00;99.90
16625;DHT22;8426;48.496;9.098;2023-05-10T19:14:23;11.90;99.90
16625;DHT22;8426;48.496;9.098;2023-05-10T19:19:29;11.80;99.90
16625;DHT22;8426;48.496;9.098;2023-05-10T19:24:34;11.70;99.90
16625;DHT22;8426;48.496;9.098;2023-05-10T19:29:39;11.60;99.90
16625;DHT22;8426;48.496;9.098;2023-05-10T19:34:44;11.50;99.90
16625;DHT22;8426;48.496;9.098;2023-05-10T19:39:48;11.50;99.90
16625;DHT22;8426;48.496;9.098;2023-05-10T19:44:53;11.40;99.90
16625;DHT22;8426;48.496;9.098;2023-05-10T19:49:59;11.40;99.90
16625;DHT22;8426;48.496;9.098;2023-05-10T19:55:04;11.50;99.90
16625;DHT22;8426;48.496;9.098;2023-05-10T20:00:13;11.50;99.90
16625;DHT22;8426;48.496;9.098;2023-05-10T20:05:20;11.50;99.90
16625;DHT22;8426;48.496;9.098;2023-05-10T20:10:24;11.50;99.90
16625;DHT22;8426;48.496;9.098;2023-05-10T20:15:28;11.40;99.90
16625;DHT22;8426;48.496;9.098;2023-05-10T20:20:34;11.40;99.90
16625;DHT22;8426;48.496;9.098;2023-05-10T20:25:39;11.40;99.90
16625;DHT22;8426;48.496;9.098;2023-05-10T20:30:43;11.40;99.90
16625;DHT22;8426;48.496;9.098;2023-05-10T20:35:48;11.40;99.90
16625;DHT22;8426;48.496;9.098;2023-05-10T20:40:52;11.40;99.90
16625;DHT22;8426;48.496;9.098;2023-05-10T20:46:00;11.30;99.90
16625;DHT22;8426;48.496;9.098;2023-05-10T20:51:08;11.30;99.90
16625;DHT22;8426;48.496;9.098;2023-05-10T20:56:13;11.30;99.90
16625;DHT22;8426;48.496;9.098;2023-05-10T21:01:17;11.20;99.90
16625;DHT22;8426;48.496;9.098;2023-05-10T21:06:21;11.20;99.90
16625;DHT22;8426;48.496;9.098;2023-05-10T21:11:25;11.10;99.90
16625;DHT22;8426;48.496;9.098;2023-05-10T21:16:29;11.10;99.90
16625;DHT22;8426;48.496;9.098;2023-05-10T21:21:34;11.10;99.90
16625;DHT22;8426;48.496;9.098;2023-05-10T21:26:40;11.10;99.90
16625;DHT22;8426;48.496;9.098;2023-05-10T21:31:44;11.10;99.90
16625;DHT22;8426;48.496;9.098;2023-05-10T21:36:49;11.00;99.90
16625;DHT22;8426;48.496;9.098;2023-05-10T21:41:53;11.00;99.90
16625;DHT22;8426;48.496;9.098;2023-05-10T21:46:59;10.90;99.90
16625;DHT22;8426;48.496;9.098;2023-05-10T21:52:05;10.90;99.90
16625;DHT22;8426;48.496;9.098;2023-05-10T21:57:10;10.90;99.90
16625;DHT22;8426;48.496;9.098;2023-05-10T22:02:14;10.90;99.90
16625;DHT22;8426;48.496;9.098;2023-05-10T22:07:19;10.90;99.90
16625;DHT22;8426;48.496;9.098;2023-05-10T22:12:22;10.80;99.90
16625;DHT22;8426;48.496;9.098;2023-05-10T22:17:26;10.80;99.90
16625;DHT22;8426;48.496;9.098;2023-05-10T22:22:31;10.60;99.90
16625;DHT22;8426;48.496;9.098;2023-05-10T22:27:35;10.60;99.90
16625;DHT22;8426;48.496;9.098;2023-05-10T22:32:38;10.60;99.90
16625;DHT22;8426;48.496;9.098;2023-05-10T22:37:43;10.50;99.90
16625;DHT22;8426;48.496;9.098;2023-05-10T22:42:48;10.50;99.90
16625;DHT22;8426;48.496;9.098;2023-05-10T22:47:52;10.50;99.90
16625;DHT22;8426;48.496;9.098;2023-05-10T22:52:57;10.40;99.90
16625;DHT22;8426;48.496;9.098;2023-05-10T22:58:01;10.50;99.90
16625;DHT22;8426;48.496;9.098;2023-05-10T23:03:05;10.60;99.90
16625;DHT22;8426;48.496;9.098;2023-05-10T23:08:10;10.60;99.90
16625;DHT22;8426;48.496;9.098;2023-05-10T23:13:14;10.60;99.90
16625;DHT22;8426;48.496;9.098;2023-05-10T23:18:17;10.50;99.90
16625;DHT22;8426;48.496;9.098;2023-05-10T23:23:22;10.50;99.90
16625;DHT22;8426;48.496;9.098;2023-05-10T23:28:26;10.50;99.90
16625;DHT22;8426;48.496;9.098;2023-05-10T23:33:29;10.50;99.90
16625;DHT22;8426;48.496;9.098;2023-05-10T23:38:34;10.50;99.90
16625;DHT22;8426;48.496;9.098;2023-05-10T23:43:39;10.40;99.90
16625;DHT22;8426;48.496;9.098;2023-05-10T23:48:43;10.30;99.90
16625;DHT22;8426;48.496;9.098;2023-05-10T23:53:48;10.30;99.90
16625;DHT22;8426;48.496;9.098;2023-05-10T23:58:51;10.20;99.90
